Time;durP1;ratioP1;P1;durP2;ratioP2;P2;SDS_P1;SDS_P2;PMS_P1;PMS_P2;Temp;Humidity;BMP_temperature;BMP_pressure;BME280_temperature;BME280_humidity;BME280_pressure;Samples;Min_cycle;Max_cycle;Signal;HPM_P1;HPM_P2
2023/10/09 00:01:46;;;;;;;53.65;22.50;;;;;;;;;;5036595;28;20017;-68
2023/10/09 00:04:11;;;;;;;46.95;21.23;;;;;;;;;;5036506;28;20025;-68
2023/10/09 00:06:37;;;;;;;53.05;21.45;;;;;;;;;;5054318;28;20020;-68
2023/10/09 00:09:25;;;;;;;48.25;21.23;;;;;;;;;;5054296;28;20047;-68
2023/10/09 00:11:48;;;;;;;52.47;21.40;;;;;;;;;;5053955;28;20045;-68
2023/10/09 00:14:15;;;;;;;44.08;20.40;;;;;;;;;;5054227;28;20021;-69
2023/10/09 00:16:48;;;;;;;39.15;20.08;;;;;;;;;;5054369;28;20519;-69
2023/10/09 00:19:34;;;;;;;;;;;;;;;;;;5054500;28;20013;-69
2023/10/09 00:22:04;;;;;;;46.38;20.85;;;;;;;;;;5053632;28;19928;-68
2023/10/09 00:24:31;;;;;;;41.10;20.50;;;;;;;;;;5054078;28;20511;-68
2023/10/09 00:27:01;;;;;;;43.80;20.67;;;;;;;;;;5036184;28;20071;-68
2023/10/09 00:29:33;;;;;;;42.42;19.95;;;;;;;;;;5036182;28;20017;-67
2023/10/09 00:32:13;;;;;;;46.25;20.10;;;;;;;;;;5053666;28;20094;-68
2023/10/09 00:34:41;;;;;;;42.33;19.73;;;;;;;;;;5036001;28;20075;-67
2023/10/09 00:37:16;;;;;;;42.63;19.75;;;;;;;;;;5035724;28;20027;-68
2023/10/09 00:39:43;;;;;;;44.72;19.33;;;;;;;;;;5035747;28;20013;-67
2023/10/09 00:42:12;;;;;;;48.97;19.83;;;;;;;;;;5035827;28;20021;-68
2023/10/09 00:44:38;;;;;;;40.47;18.23;;;;;;;;;;5053477;28;20092;-68
2023/10/09 00:47:21;;;;;;;36.88;17.77;;;;;;;;;;5053676;28;20423;-68
2023/10/09 00:49:49;;;;;;;44.30;18.17;;;;;;;;;;5035750;28;20032;-68
2023/10/09 00:52:22;;;;;;;36.60;17.55;;;;;;;;;;5053565;28;20054;-67
2023/10/09 00:54:51;;;;;;;32.63;16.05;;;;;;;;;;5053542;28;20071;-68
2023/10/09 00:57:18;;;;;;;35.30;16.73;;;;;;;;;;5053280;28;20025;-66
2023/10/09 00:59:43;;;;;;;39.20;17.33;;;;;;;;;;5035608;28;20052;-69
2023/10/09 01:02:09;;;;;;;34.55;16.27;;;;;;;;;;5053302;28;20051;-68
2023/10/09 01:04:40;;;;;;;35.42;16.17;;;;;;;;;;5035609;28;20013;-67
2023/10/09 01:07:09;;;;;;;28.00;15.10;;;;;;;;;;5035061;28;20021;-68
2023/10/09 01:09:37;;;;;;;30.05;15.70;;;;;;;;;;5053334;28;20029;-67
2023/10/09 01:12:03;;;;;;;29.80;15.88;;;;;;;;;;5053124;28;20053;-67
2023/10/09 01:14:30;;;;;;;31.88;16.42;;;;;;;;;;5053175;28;20025;-66
2023/10/09 01:16:56;;;;;;;27.48;14.80;;;;;;;;;;5035189;28;20074;-67
2023/10/09 01:19:25;;;;;;;25.73;14.68;;;;;;;;;;5035468;28;20017;-67
2023/10/09 01:21:51;;;;;;;32.15;14.75;;;;;;;;;;5053266;28;20021;-67
2023/10/09 01:24:16;;;;;;;28.88;15.20;;;;;;;;;;5053289;28;20380;-67
2023/10/09 01:26:45;;;;;;;28.92;14.23;;;;;;;;;;5053163;28;20392;-68
2023/10/09 01:29:14;;;;;;;31.08;14.82;;;;;;;;;;5053342;28;20020;-67
2023/10/09 01:31:54;;;;;;;27.08;14.02;;;;;;;;;;5053026;28;20024;-67
2023/10/09 01:34:41;;;;;;;27.98;13.95;;;;;;;;;;5035094;28;20380;-68
2023/10/09 01:37:15;;;;;;;27.77;14.10;;;;;;;;;;5034865;28;20021;-67
2023/10/09 01:39:41;;;;;;;26.13;13.63;;;;;;;;;;5053171;28;20468;-67
2023/10/09 01:42:06;;;;;;;27.92;14.80;;;;;;;;;;5052871;28;20021;-67
2023/10/09 01:44:35;;;;;;;28.33;14.00;;;;;;;;;;5056615;28;20016;-67
2023/10/09 01:47:07;;;;;;;31.83;14.65;;;;;;;;;;5039315;28;20370;-67
2023/10/09 01:49:32;;;;;;;23.98;13.52;;;;;;;;;;5056936;28;20070;-66
2023/10/09 01:52:09;;;;;;;33.05;14.48;;;;;;;;;;5056912;28;20092;-68
2023/10/09 01:54:38;;;;;;;32.38;14.88;;;;;;;;;;5056858;28;20025;-68
2023/10/09 01:57:13;;;;;;;29.88;13.63;;;;;;;;;;5056764;28;20416;-67
2023/10/09 01:59:46;;;;;;;34.75;15.00;;;;;;;;;;5056792;28;20036;-67
2023/10/09 02:02:16;;;;;;;29.33;15.15;;;;;;;;;;5056888;28;20079;-67
2023/10/09 02:04:41;;;;;;;30.33;14.13;;;;;;;;;;5056645;28;20013;-67
2023/10/09 02:07:08;;;;;;;26.57;14.13;;;;;;;;;;5038595;28;20361;-67
2023/10/09 02:09:34;;;;;;;29.67;13.57;;;;;;;;;;5056554;28;20328;-68
2023/10/09 02:12:00;;;;;;;34.33;14.25;;;;;;;;;;5038422;28;20041;-68
2023/10/09 02:14:26;;;;;;;26.42;13.93;;;;;;;;;;5056544;28;20028;-69
2023/10/09 02:17:09;;;;;;;28.38;14.38;;;;;;;;;;5056387;28;20036;-68
2023/10/09 02:19:34;;;;;;;34.63;14.88;;;;;;;;;;5038526;28;20456;-68
2023/10/09 02:22:12;;;;;;;29.17;13.75;;;;;;;;;;5056434;28;20045;-66
2023/10/09 02:27:44;;;;;;;27.40;13.98;;;;;;;;;;5056544;28;20582;-67
2023/10/09 02:30:17;;;;;;;28.58;13.82;;;;;;;;;;5056278;28;20024;-67
2023/10/09 02:32:43;;;;;;;29.05;14.35;;;;;;;;;;5038287;28;20029;-67
2023/10/09 02:35:21;;;;;;;24.98;13.50;;;;;;;;;;5056231;28;20043;-67
2023/10/09 02:37:46;;;;;;;23.85;12.95;;;;;;;;;;5038102;28;20387;-67
2023/10/09 02:40:18;;;;;;;27.35;13.57;;;;;;;;;;5056040;28;20104;-67
2023/10/09 02:42:43;;;;;;;28.98;13.90;;;;;;;;;;5055762;28;20020;-68
2023/10/09 02:45:10;;;;;;;28.30;13.55;;;;;;;;;;5037888;28;20528;-68
2023/10/09 02:47:39;;;;;;;23.42;12.85;;;;;;;;;;5055576;28;20021;-67
2023/10/09 02:50:19;;;;;;;26.13;12.20;;;;;;;;;;5037932;28;20013;-69
2023/10/09 02:52:47;;;;;;;33.50;13.60;;;;;;;;;;5055523;28;20036;-68
2023/10/09 02:55:23;;;;;;;26.83;12.95;;;;;;;;;;5055688;28;20366;-67
2023/10/09 02:57:51;;;;;;;24.98;12.13;;;;;;;;;;5055599;28;20023;-67
2023/10/09 03:00:28;;;;;;;25.10;11.80;;;;;;;;;;5037873;28;20155;-67
2023/10/09 03:02:53;;;;;;;24.73;11.88;;;;;;;;;;5037417;28;20013;-67
2023/10/09 03:05:20;;;;;;;27.25;11.48;;;;;;;;;;5055586;28;20031;-67
2023/10/09 03:07:45;;;;;;;23.08;11.07;;;;;;;;;;5055468;28;20118;-67
2023/10/09 03:10:10;;;;;;;24.13;11.48;;;;;;;;;;5055392;28;20100;-67
2023/10/09 03:12:36;;;;;;;18.73;9.73;;;;;;;;;;5055396;28;20447;-67
2023/10/09 03:15:05;;;;;;;23.95;10.30;;;;;;;;;;5037606;28;20462;-68
2023/10/09 03:17:34;;;;;;;21.13;10.65;;;;;;;;;;5054757;28;20029;-69
2023/10/09 03:19:59;;;;;;;21.80;10.27;;;;;;;;;;5054771;28;20108;-68
2023/10/09 03:22:24;;;;;;;24.70;9.40;;;;;;;;;;5055267;28;20044;-68
2023/10/09 03:24:52;;;;;;;25.47;9.47;;;;;;;;;;5055122;28;20410;-68
2023/10/09 03:27:18;;;;;;;21.58;9.00;;;;;;;;;;5055031;28;20669;-68
2023/10/09 03:29:49;;;;;;;20.77;9.45;;;;;;;;;;5055150;28;20025;-68
2023/10/09 03:32:14;;;;;;;21.98;9.75;;;;;;;;;;5053889;28;20028;-68
2023/10/09 03:34:39;;;;;;;23.43;8.93;;;;;;;;;;5053417;28;20360;-68
2023/10/09 03:37:04;;;;;;;20.37;9.20;;;;;;;;;;5053797;28;20279;-68
2023/10/09 03:42:04;;;;;;;20.33;9.65;;;;;;;;;;5055164;28;20029;-67
2023/10/09 03:44:30;;;;;;;22.80;9.40;;;;;;;;;;5036856;28;20017;-67
2023/10/09 03:46:56;;;;;;;21.95;9.30;;;;;;;;;;5054852;28;20159;-68
2023/10/09 03:49:25;;;;;;;22.33;9.65;;;;;;;;;;5054719;28;20051;-68
2023/10/09 03:51:51;;;;;;;20.00;8.85;;;;;;;;;;5054665;28;20021;-68
2023/10/09 03:54:20;;;;;;;18.63;9.45;;;;;;;;;;5054523;28;20021;-68
2023/10/09 03:56:45;;;;;;;19.67;9.45;;;;;;;;;;5036556;28;20388;-68
2023/10/09 03:59:12;;;;;;;17.70;8.93;;;;;;;;;;5036655;28;20079;-68
2023/10/09 04:01:38;;;;;;;21.67;9.68;;;;;;;;;;5036607;28;20528;-68
2023/10/09 04:04:05;;;;;;;15.93;9.02;;;;;;;;;;5054457;28;20052;-68
2023/10/09 04:06:32;;;;;;;23.85;9.18;;;;;;;;;;5036163;28;20049;-68
2023/10/09 04:08:58;;;;;;;20.00;9.38;;;;;;;;;;5036367;28;20025;-68
2023/10/09 04:11:24;;;;;;;18.20;9.07;;;;;;;;;;5054321;28;20041;-68
2023/10/09 04:13:51;;;;;;;20.33;9.27;;;;;;;;;;5053898;28;20158;-68
2023/10/09 04:16:50;;;;;;;22.98;9.50;;;;;;;;;;5036149;28;20021;-68
2023/10/09 04:19:10;;;;;;;23.58;9.23;;;;;;;;;;5052233;28;20291;-68
2023/10/09 04:21:36;;;;;;;21.67;9.15;;;;;;;;;;5053832;28;20021;-68
2023/10/09 04:26:46;;;;;;;19.38;9.20;;;;;;;;;;5054035;28;20492;-68
2023/10/09 04:29:18;;;;;;;17.73;9.13;;;;;;;;;;5036104;28;20472;-67
2023/10/09 04:31:44;;;;;;;18.20;8.75;;;;;;;;;;5053962;28;20064;-68
2023/10/09 04:34:22;;;;;;;19.67;9.95;;;;;;;;;;5036028;28;20023;-68
2023/10/09 04:36:49;;;;;;;21.35;9.10;;;;;;;;;;5035861;28;20032;-68
2023/10/09 04:39:16;;;;;;;19.63;9.23;;;;;;;;;;5053755;28;20043;-68
2023/10/09 04:44:19;;;;;;;17.23;9.13;;;;;;;;;;5053367;28;20021;-68
2023/10/09 04:46:44;;;;;;;18.38;8.57;;;;;;;;;;5035845;28;20112;-68
2023/10/09 04:49:27;;;;;;;21.50;9.15;;;;;;;;;;5053550;28;20092;-68
2023/10/09 04:52:04;;;;;;;21.33;8.82;;;;;;;;;;5053668;28;20033;-68
2023/10/09 04:54:39;;;;;;;24.02;9.27;;;;;;;;;;5035602;28;20028;-68
2023/10/09 04:57:04;;;;;;;17.85;8.63;;;;;;;;;;5053607;28;20017;-67
2023/10/09 04:59:29;;;;;;;20.25;8.73;;;;;;;;;;5053456;28;20092;-68
2023/10/09 05:01:58;;;;;;;18.30;8.17;;;;;;;;;;5053166;28;20017;-67
2023/10/09 05:04:40;;;;;;;17.58;8.13;;;;;;;;;;5053443;28;20096;-68
2023/10/09 05:10:03;;;;;;;23.85;8.88;;;;;;;;;;5053667;28;20172;-66
2023/10/09 05:12:29;;;;;;;15.90;8.57;;;;;;;;;;5053152;28;20041;-68
2023/10/09 05:15:08;;;;;;;18.42;8.88;;;;;;;;;;5053189;28;20067;-68
2023/10/09 05:17:35;;;;;;;19.83;8.05;;;;;;;;;;5034581;28;20075;-68
2023/10/09 05:20:55;;;;;;;21.95;8.55;;;;;;;;;;5053187;28;20461;-67
2023/10/09 05:22:56;;;;;;;19.88;8.02;;;;;;;;;;5053222;28;20517;-67
2023/10/09 05:25:39;;;;;;;18.55;8.07;;;;;;;;;;5053050;28;20013;-67
2023/10/09 05:28:25;;;;;;;17.63;8.25;;;;;;;;;;5053206;28;20047;-68
2023/10/09 05:30:55;;;;;;;18.42;8.02;;;;;;;;;;5052431;28;20017;-69
2023/10/09 05:33:28;;;;;;;;;;;;;;;;;;5052217;28;20025;-68
2023/10/09 05:38:58;;;;;;;15.98;7.57;;;;;;;;;;5035595;28;20399;-69
2023/10/09 05:49:46;;;;;;;17.45;7.65;;;;;;;;;;5059339;28;20036;-68
2023/10/09 05:52:42;;;;;;;17.33;7.63;;;;;;;;;;5058588;28;20013;-68
2023/10/09 06:09:09;;;;;;;22.48;7.25;;;;;;;;;;5053913;28;20076;-69
2023/10/09 06:14:12;;;;;;;18.42;7.50;;;;;;;;;;5053279;28;20028;-67
2023/10/09 06:16:41;;;;;;;12.25;7.00;;;;;;;;;;5052807;28;20025;-67
2023/10/09 06:19:12;;;;;;;17.50;7.30;;;;;;;;;;5052196;28;20013;-68
2023/10/09 06:24:22;;;;;;;;;;;;;;;;;;5051799;28;20098;-67
2023/10/09 06:29:35;;;;;;;19.23;7.40;;;;;;;;;;5054093;28;20032;-67
2023/10/09 06:34:52;;;;;;;20.25;7.22;;;;;;;;;;5054732;28;20051;-68
2023/10/09 06:45:16;;;;;;;17.05;7.38;;;;;;;;;;5054911;28;20025;-69
2023/10/09 06:47:44;;;;;;;20.85;7.18;;;;;;;;;;5037050;28;20384;-67
2023/10/09 06:55:50;;;;;;;19.90;7.65;;;;;;;;;;5055740;28;20083;-67
2023/10/09 06:58:22;;;;;;;15.50;7.30;;;;;;;;;;5037734;28;20041;-67
2023/10/09 07:00:51;;;;;;;13.52;6.57;;;;;;;;;;5037284;28;20009;-67
2023/10/09 07:03:19;;;;;;;18.33;7.53;;;;;;;;;;5055594;28;20013;-67
2023/10/09 07:06:04;;;;;;;14.85;7.18;;;;;;;;;;5055749;28;20017;-68
2023/10/09 07:08:36;;;;;;;15.57;7.32;;;;;;;;;;5055565;28;20021;-68
2023/10/09 07:13:55;;;;;;;19.98;7.40;;;;;;;;;;5055654;28;20117;-68
2023/10/09 07:16:24;;;;;;;21.15;7.13;;;;;;;;;;5055545;28;20021;-68
2023/10/09 07:18:49;;;;;;;18.95;7.32;;;;;;;;;;5036513;28;20024;-67
2023/10/09 07:21:18;;;;;;;20.85;6.90;;;;;;;;;;5037528;28;20460;-69
2023/10/09 07:23:48;;;;;;;20.15;7.55;;;;;;;;;;5055678;28;20025;-68
2023/10/09 07:26:25;;;;;;;16.15;7.28;;;;;;;;;;5037656;28;20013;-68
2023/10/09 07:28:50;;;;;;;20.70;7.63;;;;;;;;;;5055454;28;20475;-68
2023/10/09 07:31:39;;;;;;;24.00;7.18;;;;;;;;;;5037551;28;20025;-68
2023/10/09 07:34:30;;;;;;;21.60;8.18;;;;;;;;;;5055293;28;20021;-68
2023/10/09 07:36:56;;;;;;;15.93;7.35;;;;;;;;;;5054930;28;20090;-68
2023/10/09 07:39:22;;;;;;;18.38;7.45;;;;;;;;;;5037502;28;20048;-68
2023/10/09 07:42:01;;;;;;;15.60;7.57;;;;;;;;;;5036594;28;20086;-68
2023/10/09 07:44:39;;;;;;;17.27;7.18;;;;;;;;;;5055105;28;20514;-68
2023/10/09 07:47:17;;;;;;;19.52;7.35;;;;;;;;;;5037380;28;20020;-68
2023/10/09 07:49:48;;;;;;;16.73;7.15;;;;;;;;;;5037067;28;20031;-67
2023/10/09 07:52:14;;;;;;;15.23;7.30;;;;;;;;;;5037560;28;20028;-67
2023/10/09 07:54:42;;;;;;;19.90;7.20;;;;;;;;;;5055164;28;20021;-67
2023/10/09 07:57:15;;;;;;;18.20;7.50;;;;;;;;;;5055500;28;20017;-68
2023/10/09 07:59:41;;;;;;;18.52;7.65;;;;;;;;;;5037427;28;20027;-68
2023/10/09 08:02:13;;;;;;;18.02;7.13;;;;;;;;;;5055376;28;20088;-68
2023/10/09 08:04:53;;;;;;;20.57;7.53;;;;;;;;;;5055426;28;20009;-68
2023/10/09 08:07:34;;;;;;;19.38;8.13;;;;;;;;;;5036673;28;20104;-67
2023/10/09 08:17:50;;;;;;;17.30;6.85;;;;;;;;;;5054672;28;20036;-67
2023/10/09 08:20:17;;;;;;;16.27;6.68;;;;;;;;;;5054531;28;20021;-67
2023/10/09 08:22:52;;;;;;;17.48;6.38;;;;;;;;;;5054255;28;20017;-67
2023/10/09 08:25:26;;;;;;;15.88;6.63;;;;;;;;;;5054240;28;20020;-68
2023/10/09 08:28:28;;;;;;;17.40;6.43;;;;;;;;;;5054487;28;20426;-67
2023/10/09 08:31:02;;;;;;;17.42;6.95;;;;;;;;;;5054464;28;20500;-68
2023/10/09 08:35:55;;;;;;;17.90;7.17;;;;;;;;;;5054545;28;20063;-68
2023/10/09 08:38:23;;;;;;;17.83;6.65;;;;;;;;;;5036475;28;20028;-68
2023/10/09 08:40:50;;;;;;;15.60;6.72;;;;;;;;;;5036694;28;20381;-68
2023/10/09 08:43:16;;;;;;;15.90;6.57;;;;;;;;;;5058789;28;20017;-68
2023/10/09 08:45:45;;;;;;;16.17;7.30;;;;;;;;;;5045624;28;20013;-69
2023/10/09 08:48:17;;;;;;;15.13;6.55;;;;;;;;;;5062072;28;20436;-69
2023/10/09 08:50:47;;;;;;;14.13;6.63;;;;;;;;;;5043357;28;20028;-69
2023/10/09 08:53:13;;;;;;;15.25;6.50;;;;;;;;;;5063830;28;20028;-69
2023/10/09 08:55:39;;;;;;;20.25;6.45;;;;;;;;;;5063123;28;20032;-67
2023/10/09 08:58:19;;;;;;;16.17;5.93;;;;;;;;;;5062888;28;20025;-67
2023/10/09 09:00:46;;;;;;;15.80;6.45;;;;;;;;;;5062988;28;20024;-67
2023/10/09 09:03:18;;;;;;;21.90;6.55;;;;;;;;;;5063070;28;20016;-68
2023/10/09 09:05:49;;;;;;;17.67;6.47;;;;;;;;;;5062498;28;20025;-69
2023/10/09 09:08:23;;;;;;;19.75;6.53;;;;;;;;;;5071129;28;20021;-68
2023/10/09 09:10:50;;;;;;;18.30;6.38;;;;;;;;;;5072715;28;20117;-68
2023/10/09 09:13:18;;;;;;;17.55;6.18;;;;;;;;;;5054123;28;20079;-69
2023/10/09 09:15:46;;;;;;;17.45;6.00;;;;;;;;;;5055540;28;20031;-69
2023/10/09 09:18:17;;;;;;;15.48;6.57;;;;;;;;;;5072677;28;20061;-69
2023/10/09 09:20:46;;;;;;;18.63;6.57;;;;;;;;;;5073600;28;20142;-70
2023/10/09 09:23:16;;;;;;;21.38;7.00;;;;;;;;;;5055809;28;20075;-69
2023/10/09 09:25:45;;;;;;;16.85;6.00;;;;;;;;;;5070235;28;20476;-70
2023/10/09 09:28:19;;;;;;;14.43;5.75;;;;;;;;;;5057500;28;20024;-68
2023/10/09 09:30:50;;;;;;;16.00;6.00;;;;;;;;;;5056977;28;20024;-68
2023/10/09 09:36:02;;;;;;;16.63;5.93;;;;;;;;;;5056645;28;20040;-67
2023/10/09 09:38:28;;;;;;;15.60;5.78;;;;;;;;;;5055947;28;20021;-68
2023/10/09 09:40:55;;;;;;;15.07;5.90;;;;;;;;;;5054672;28;20020;-67
2023/10/09 09:43:22;;;;;;;16.67;5.65;;;;;;;;;;5054429;28;20014;-67
2023/10/09 09:45:49;;;;;;;16.15;5.82;;;;;;;;;;5054745;28;20024;-68
2023/10/09 09:48:16;;;;;;;18.02;5.70;;;;;;;;;;5054330;28;20035;-68
2023/10/09 09:50:44;;;;;;;13.77;5.75;;;;;;;;;;5054163;28;20108;-68
2023/10/09 09:53:10;;;;;;;15.70;5.82;;;;;;;;;;5054096;28;20088;-69
2023/10/09 09:55:41;;;;;;;16.20;5.72;;;;;;;;;;5054072;28;20056;-68
2023/10/09 09:58:18;;;;;;;17.85;5.65;;;;;;;;;;5035823;28;20074;-68
2023/10/09 10:00:43;;;;;;;17.30;5.93;;;;;;;;;;5053994;28;20021;-68
2023/10/09 10:03:12;;;;;;;15.50;5.70;;;;;;;;;;5053589;28;20013;-68
2023/10/09 10:05:38;;;;;;;11.07;5.30;;;;;;;;;;5039216;28;20014;-70
2023/10/09 10:08:05;;;;;;;13.93;5.25;;;;;;;;;;5039561;28;20035;-68
2023/10/09 10:10:34;;;;;;;14.80;5.82;;;;;;;;;;5039429;28;20021;-70
2023/10/09 10:13:02;;;;;;;16.52;5.78;;;;;;;;;;5057089;28;20021;-66
2023/10/09 10:15:46;;;;;;;13.93;5.15;;;;;;;;;;5039014;28;20357;-69
2023/10/09 10:18:18;;;;;;;17.35;5.38;;;;;;;;;;5056982;28;20050;-68
2023/10/09 10:21:29;;;;;;;18.13;5.57;;;;;;;;;;5039133;28;20021;-67
2023/10/09 10:24:05;;;;;;;15.68;5.47;;;;;;;;;;5056991;28;20025;-68
2023/10/09 10:26:33;;;;;;;19.85;5.38;;;;;;;;;;5056731;28;20021;-68
2023/10/09 10:29:23;;;;;;;14.98;5.00;;;;;;;;;;5056760;28;20100;-68
2023/10/09 10:31:55;;;;;;;14.85;5.22;;;;;;;;;;5056683;28;20028;-68
2023/10/09 10:34:23;;;;;;;14.77;5.18;;;;;;;;;;5056556;28;20052;-68
2023/10/09 10:36:52;;;;;;;14.23;5.55;;;;;;;;;;5056674;28;20024;-68
2023/10/09 10:39:21;;;;;;;14.27;5.13;;;;;;;;;;5056577;28;20025;-68
2023/10/09 10:41:54;;;;;;;13.68;4.90;;;;;;;;;;5056728;28;20135;-68
2023/10/09 10:44:41;;;;;;;15.85;5.85;;;;;;;;;;5056348;28;20426;-68
2023/10/09 10:47:22;;;;;;;18.05;5.72;;;;;;;;;;5056627;28;20070;-68
2023/10/09 10:49:51;;;;;;;12.15;5.07;;;;;;;;;;5056617;28;20025;-68
2023/10/09 10:52:20;;;;;;;14.70;5.43;;;;;;;;;;5056269;28;20017;-68
2023/10/09 10:54:45;;;;;;;14.50;5.30;;;;;;;;;;5056164;28;20128;-68
2023/10/09 10:57:19;;;;;;;14.98;5.30;;;;;;;;;;5056315;28;20109;-69
2023/10/09 10:59:45;;;;;;;14.65;5.13;;;;;;;;;;5056650;28;20028;-69
2023/10/09 11:04:42;;;;;;;14.88;5.50;;;;;;;;;;5056841;28;20025;-69
2023/10/09 11:07:12;;;;;;;11.53;5.13;;;;;;;;;;5038240;28;20028;-68
2023/10/09 11:12:44;;;;;;;12.50;4.88;;;;;;;;;;5055841;28;20056;-68
2023/10/09 11:18:04;;;;;;;16.33;4.90;;;;;;;;;;5056060;28;20037;-68
2023/10/09 11:20:32;;;;;;;15.50;4.85;;;;;;;;;;5037951;28;20044;-68
2023/10/09 11:25:35;;;;;;;23.55;5.65;;;;;;;;;;5056023;28;20025;-69
2023/10/09 11:28:27;;;;;;;18.65;5.57;;;;;;;;;;5037906;28;20021;-68
2023/10/09 11:30:46;;;;;;;16.70;5.00;;;;;;;;;;5055224;28;20033;-68
2023/10/09 11:33:14;;;;;;;11.93;5.05;;;;;;;;;;5055728;28;20023;-68
2023/10/09 11:35:41;;;;;;;14.02;5.25;;;;;;;;;;5055378;28;20021;-68
2023/10/09 11:38:20;;;;;;;13.55;5.35;;;;;;;;;;5037646;28;20112;-68
2023/10/09 11:43:17;;;;;;;12.50;5.00;;;;;;;;;;5055770;28;20025;-68
2023/10/09 11:45:54;;;;;;;14.70;4.97;;;;;;;;;;5055588;28;20013;-68
2023/10/09 11:48:33;;;;;;;18.30;5.00;;;;;;;;;;5055377;28;20052;-68
2023/10/09 11:53:39;;;;;;;16.70;5.20;;;;;;;;;;5055109;28;20147;-68
2023/10/09 11:56:04;;;;;;;12.52;4.60;;;;;;;;;;5037174;28;20025;-68
2023/10/09 11:58:29;;;;;;;13.80;4.72;;;;;;;;;;5055002;28;20455;-68
2023/10/09 12:01:05;;;;;;;15.40;4.35;;;;;;;;;;5055238;28;20025;-67
2023/10/09 12:03:31;;;;;;;13.68;4.90;;;;;;;;;;5055263;28;20075;-68
2023/10/09 12:05:56;;;;;;;12.50;4.95;;;;;;;;;;5054861;28;20045;-67
2023/10/09 12:08:26;;;;;;;16.65;5.10;;;;;;;;;;5037100;28;20021;-68
2023/10/09 12:10:54;;;;;;;18.92;5.50;;;;;;;;;;5036719;28;20047;-68
2023/10/09 12:13:22;;;;;;;14.40;5.20;;;;;;;;;;5054726;28;20468;-68
2023/10/09 12:15:47;;;;;;;15.23;5.15;;;;;;;;;;5054454;28;20017;-69
2023/10/09 12:18:15;;;;;;;15.25;5.20;;;;;;;;;;5054797;28;20401;-68
2023/10/09 12:20:41;;;;;;;14.32;5.00;;;;;;;;;;5054785;28;20009;-68
2023/10/09 12:23:07;;;;;;;15.73;4.97;;;;;;;;;;5036936;28;20085;-69
2023/10/09 12:25:33;;;;;;;18.23;5.03;;;;;;;;;;5054645;28;20028;-70
2023/10/09 12:28:01;;;;;;;10.98;4.78;;;;;;;;;;5054248;28;20012;-69
2023/10/09 12:30:29;;;;;;;13.00;5.05;;;;;;;;;;5054225;28;20071;-70
2023/10/09 12:32:54;;;;;;;17.63;5.75;;;;;;;;;;5036396;28;20029;-69
2023/10/09 12:35:20;;;;;;;10.98;4.57;;;;;;;;;;5054422;28;20094;-69
2023/10/09 12:37:46;;;;;;;14.13;5.03;;;;;;;;;;5054256;28;20040;-70
2023/10/09 12:40:11;;;;;;;13.25;5.00;;;;;;;;;;5054446;28;20395;-69
2023/10/09 12:42:36;;;;;;;9.65;4.65;;;;;;;;;;5054603;28;20013;-68
2023/10/09 12:45:08;;;;;;;13.18;5.15;;;;;;;;;;5054232;28;20103;-68
2023/10/09 12:47:33;;;;;;;16.88;4.85;;;;;;;;;;5036326;28;20424;-68
2023/10/09 12:49:58;;;;;;;19.52;5.40;;;;;;;;;;5036292;28;20078;-69
2023/10/09 12:52:29;;;;;;;9.98;4.55;;;;;;;;;;5054266;28;20033;-69
2023/10/09 12:54:54;;;;;;;17.20;4.50;;;;;;;;;;5035851;28;20021;-68
2023/10/09 12:57:20;;;;;;;15.20;5.22;;;;;;;;;;5035738;28;20430;-67
2023/10/09 12:59:45;;;;;;;13.60;4.75;;;;;;;;;;5053798;28;20025;-67
2023/10/09 13:02:28;;;;;;;15.02;5.22;;;;;;;;;;5036047;28;20096;-67
2023/10/09 13:04:54;;;;;;;16.00;5.03;;;;;;;;;;5053992;28;20013;-68
2023/10/09 13:07:21;;;;;;;15.30;5.10;;;;;;;;;;5054047;28;20039;-68
2023/10/09 13:10:08;;;;;;;17.55;5.00;;;;;;;;;;5053840;28;20017;-69
2023/10/09 13:12:32;;;;;;;12.15;4.90;;;;;;;;;;5053390;28;20049;-67
2023/10/09 13:14:57;;;;;;;15.13;4.78;;;;;;;;;;5035692;28;20024;-68
2023/10/09 13:17:26;;;;;;;12.50;4.90;;;;;;;;;;5053394;28;20025;-69
2023/10/09 13:19:52;;;;;;;17.63;4.97;;;;;;;;;;5053365;28;20096;-68
2023/10/09 13:22:17;;;;;;;14.63;4.90;;;;;;;;;;5053691;28;20055;-69
2023/10/09 13:24:42;;;;;;;17.20;5.20;;;;;;;;;;5053722;28;20271;-68
2023/10/09 13:27:09;;;;;;;16.35;5.03;;;;;;;;;;5054258;28;20067;-68
2023/10/09 13:29:35;;;;;;;16.52;5.15;;;;;;;;;;5053463;28;20104;-69
2023/10/09 13:32:02;;;;;;;20.88;5.90;;;;;;;;;;5053832;28;20048;-68
2023/10/09 13:34:28;;;;;;;14.13;5.10;;;;;;;;;;5054156;28;20016;-68
2023/10/09 13:36:53;;;;;;;20.73;5.50;;;;;;;;;;5054341;28;20056;-68
2023/10/09 13:39:24;;;;;;;15.95;5.00;;;;;;;;;;5037341;28;20043;-68
2023/10/09 13:41:59;;;;;;;20.45;4.95;;;;;;;;;;5057366;28;20017;-68
2023/10/09 13:44:26;;;;;;;14.15;5.03;;;;;;;;;;5057466;28;20017;-68
2023/10/09 13:46:52;;;;;;;14.57;5.13;;;;;;;;;;5057572;28;20013;-68
2023/10/09 13:49:17;;;;;;;19.70;5.03;;;;;;;;;;5057090;28;20464;-68
2023/10/09 13:51:46;;;;;;;22.63;5.53;;;;;;;;;;5039511;28;20361;-68
2023/10/09 13:54:19;;;;;;;16.50;5.55;;;;;;;;;;5057150;28;20155;-68
2023/10/09 13:56:45;;;;;;;17.92;5.45;;;;;;;;;;5056062;28;20013;-68
2023/10/09 13:59:10;;;;;;;14.70;5.60;;;;;;;;;;5037928;28;20023;-69
2023/10/09 14:01:36;;;;;;;17.33;5.50;;;;;;;;;;5055969;28;20013;-69
2023/10/09 14:04:01;;;;;;;18.75;5.40;;;;;;;;;;5037711;28;20090;-69
2023/10/09 14:06:33;;;;;;;18.58;5.68;;;;;;;;;;5055755;28;20092;-68
2023/10/09 14:08:58;;;;;;;24.30;5.90;;;;;;;;;;5055894;28;20017;-69
2023/10/09 14:11:24;;;;;;;15.20;5.53;;;;;;;;;;5056179;28;20033;-68
2023/10/09 14:13:51;;;;;;;17.77;5.85;;;;;;;;;;5057014;28;20259;-68
2023/10/09 14:16:27;;;;;;;18.77;5.72;;;;;;;;;;5056916;28;20013;-68
2023/10/09 14:19:00;;;;;;;26.00;5.95;;;;;;;;;;5056766;28;20495;-68
2023/10/09 14:21:29;;;;;;;12.65;5.10;;;;;;;;;;5057080;28;20021;-68
2023/10/09 14:23:57;;;;;;;16.73;6.07;;;;;;;;;;5056969;28;20017;-69
2023/10/09 14:26:29;;;;;;;17.90;6.22;;;;;;;;;;5056859;28;20028;-69
2023/10/09 14:28:56;;;;;;;18.23;5.63;;;;;;;;;;5038826;28;20024;-68
2023/10/09 14:31:28;;;;;;;20.45;5.38;;;;;;;;;;5056970;28;20083;-68
2023/10/09 14:33:56;;;;;;;18.10;5.70;;;;;;;;;;5038698;28;20024;-68
2023/10/09 14:36:22;;;;;;;14.15;5.10;;;;;;;;;;5056451;28;20040;-68
2023/10/09 14:38:52;;;;;;;15.98;5.68;;;;;;;;;;5056388;28;20021;-68
2023/10/09 14:41:23;;;;;;;15.90;5.65;;;;;;;;;;5057159;28;20017;-68
2023/10/09 14:43:48;;;;;;;23.15;5.57;;;;;;;;;;5038451;28;20067;-68
2023/10/09 14:46:14;;;;;;;17.23;5.80;;;;;;;;;;5056439;28;20024;-68
2023/10/09 14:48:41;;;;;;;21.27;5.72;;;;;;;;;;5056447;28;20031;-67
2023/10/09 14:51:06;;;;;;;18.42;6.10;;;;;;;;;;5056168;28;20203;-68
2023/10/09 14:53:34;;;;;;;17.08;5.90;;;;;;;;;;5038375;28;20049;-68
2023/10/09 14:56:01;;;;;;;27.25;6.13;;;;;;;;;;5038450;28;20453;-67
2023/10/09 14:58:28;;;;;;;12.88;6.05;;;;;;;;;;5038232;28;20040;-68
2023/10/09 15:00:54;;;;;;;18.25;6.43;;;;;;;;;;5038192;28;20028;-67
2023/10/09 15:03:19;;;;;;;20.05;6.40;;;;;;;;;;5056005;28;20013;-68
2023/10/09 15:05:45;;;;;;;18.60;6.55;;;;;;;;;;5055984;28;20040;-68
2023/10/09 15:08:11;;;;;;;18.10;6.38;;;;;;;;;;5038018;28;20403;-68
2023/10/09 15:10:56;;;;;;;22.90;6.32;;;;;;;;;;5056024;28;20405;-68
2023/10/09 15:13:27;;;;;;;19.45;6.10;;;;;;;;;;5037317;28;20076;-69
2023/10/09 15:15:54;;;;;;;21.83;5.90;;;;;;;;;;5055910;28;20032;-68
2023/10/09 15:18:21;;;;;;;17.27;6.05;;;;;;;;;;5056024;28;20025;-68
2023/10/09 15:20:46;;;;;;;14.93;5.18;;;;;;;;;;5037911;28;20017;-68
2023/10/09 15:23:11;;;;;;;16.52;6.03;;;;;;;;;;5056241;28;20028;-68
2023/10/09 15:25:39;;;;;;;15.82;6.13;;;;;;;;;;5038072;28;20035;-69
2023/10/09 15:28:04;;;;;;;23.58;6.57;;;;;;;;;;5055614;28;20013;-68
2023/10/09 15:30:31;;;;;;;16.48;5.85;;;;;;;;;;5037669;28;20455;-68
2023/10/09 15:32:57;;;;;;;17.92;5.90;;;;;;;;;;5037471;28;20017;-68
2023/10/09 15:35:22;;;;;;;19.52;5.57;;;;;;;;;;5055615;28;20021;-68
2023/10/09 15:37:48;;;;;;;19.27;6.35;;;;;;;;;;5055434;28;20351;-67
2023/10/09 15:40:18;;;;;;;20.02;5.85;;;;;;;;;;5055437;28;20024;-67
2023/10/09 15:42:49;;;;;;;16.15;5.95;;;;;;;;;;5055292;28;20025;-68
2023/10/09 15:45:14;;;;;;;19.65;6.20;;;;;;;;;;5055212;28;20013;-68
2023/10/09 15:47:39;;;;;;;13.57;5.90;;;;;;;;;;5037497;28;20048;-68
2023/10/09 15:50:08;;;;;;;15.93;6.20;;;;;;;;;;5055240;28;20407;-68
2023/10/09 15:52:33;;;;;;;20.45;5.82;;;;;;;;;;5058675;28;20267;-68
2023/10/09 15:54:59;;;;;;;20.70;6.03;;;;;;;;;;5043638;28;20060;-68
2023/10/09 15:57:24;;;;;;;16.50;6.22;;;;;;;;;;5044006;28;20587;-68
2023/10/09 15:59:50;;;;;;;18.67;6.30;;;;;;;;;;5062093;28;20021;-69
2023/10/09 16:02:16;;;;;;;21.45;6.25;;;;;;;;;;5061148;28;20024;-68
2023/10/09 16:04:42;;;;;;;16.90;6.10;;;;;;;;;;5058948;28;20100;-69
2023/10/09 16:07:07;;;;;;;20.60;6.45;;;;;;;;;;5054945;28;20425;-69
2023/10/09 16:09:37;;;;;;;19.80;6.57;;;;;;;;;;5036893;28;20035;-69
2023/10/09 16:12:03;;;;;;;15.93;6.15;;;;;;;;;;5058304;28;20103;-67
2023/10/09 16:14:28;;;;;;;16.90;6.15;;;;;;;;;;5060950;28;20426;-69
2023/10/09 16:16:55;;;;;;;18.83;6.67;;;;;;;;;;5061367;28;20155;-69
2023/10/09 16:19:20;;;;;;;22.38;6.53;;;;;;;;;;5043207;28;20754;-69